Time;durP1;ratioP1;P1;durP2;ratioP2;P2;SDS_P1;SDS_P2;PMS_P1;PMS_P2;Temp;Humidity;BMP_temperature;BMP_pressure;BME280_temperature;BME280_humidity;BME280_pressure;Samples;Min_cycle;Max_cycle;Signal;HPM_P1;HPM_P2
2022/04/01 00:00:14;;;;;;;11.45;7.15;;;;;;;;;;5014368;28;20037;-61
2022/04/01 00:02:40;;;;;;;12.23;7.80;;;;;;;;;;5018479;28;20032;-61
2022/04/01 00:05:07;;;;;;;11.00;7.63;;;;;;;;;;5018118;28;20061;-60
2022/04/01 00:07:34;;;;;;;12.10;7.55;;;;;;;;;;5021923;28;20478;-61
2022/04/01 00:10:00;;;;;;;11.35;7.35;;;;;;;;;;5018769;28;20025;-60
2022/04/01 00:12:26;;;;;;;8.07;6.80;;;;;;;;;;5017091;28;20038;-61
2022/04/01 00:14:52;;;;;;;14.00;8.80;;;;;;;;;;5019788;28;20048;-61
2022/04/01 00:17:18;;;;;;;13.35;8.30;;;;;;;;;;5023516;28;20029;-61
2022/04/01 00:19:44;;;;;;;10.60;7.45;;;;;;;;;;5023607;28;20036;-61
2022/04/01 00:22:11;;;;;;;13.48;9.05;;;;;;;;;;5022406;28;20237;-60
2022/04/01 00:24:37;;;;;;;11.90;8.48;;;;;;;;;;5023676;28;20422;-61
2022/04/01 00:27:03;;;;;;;14.02;8.93;;;;;;;;;;5018656;28;20049;-61
2022/04/01 00:29:28;;;;;;;9.63;8.20;;;;;;;;;;5028935;28;20397;-60
2022/04/01 00:32:01;;;;;;;13.35;8.65;;;;;;;;;;5023163;28;20041;-60
2022/04/01 00:34:29;;;;;;;13.25;8.45;;;;;;;;;;5020331;28;20060;-60
2022/04/01 00:36:56;;;;;;;12.30;8.65;;;;;;;;;;5022897;28;20036;-60
2022/04/01 00:39:23;;;;;;;10.73;8.88;;;;;;;;;;5020860;28;20512;-61
2022/04/01 00:41:50;;;;;;;15.55;9.32;;;;;;;;;;5019204;28;20042;-60
2022/04/01 00:44:21;;;;;;;16.23;9.73;;;;;;;;;;5032512;28;20354;-61
2022/04/01 00:46:57;;;;;;;28.52;16.85;;;;;;;;;;5023140;28;20434;-60
2022/04/01 00:49:26;;;;;;;11.68;9.60;;;;;;;;;;5028908;28;20065;-60
2022/04/01 00:51:54;;;;;;;13.35;9.93;;;;;;;;;;5020252;28;20033;-60
2022/04/01 00:54:20;;;;;;;13.85;10.27;;;;;;;;;;5021386;28;20022;-61
2022/04/01 00:56:46;;;;;;;12.95;9.20;;;;;;;;;;5020123;28;20982;-60
2022/04/01 00:59:12;;;;;;;18.02;10.98;;;;;;;;;;5022236;28;20034;-60
2022/04/01 01:01:49;;;;;;;20.65;11.77;;;;;;;;;;5029974;28;20026;-60
2022/04/01 01:04:16;;;;;;;14.48;9.93;;;;;;;;;;5031286;28;20060;-61
2022/04/01 01:06:45;;;;;;;16.38;9.82;;;;;;;;;;5024999;28;20032;-61
2022/04/01 01:09:12;;;;;;;15.88;10.13;;;;;;;;;;5025104;28;20441;-60
2022/04/01 01:11:38;;;;;;;14.18;9.35;;;;;;;;;;5018397;28;20029;-61
2022/04/01 01:14:07;;;;;;;12.18;8.88;;;;;;;;;;5024057;28;20037;-61
2022/04/01 01:16:34;;;;;;;14.02;9.25;;;;;;;;;;5025248;28;20457;-60
2022/04/01 01:19:11;;;;;;;13.63;9.18;;;;;;;;;;5020030;28;20037;-61
2022/04/01 01:21:38;;;;;;;10.57;9.00;;;;;;;;;;5025356;28;20029;-61
2022/04/01 01:24:06;;;;;;;13.88;9.25;;;;;;;;;;5014066;28;20041;-60
2022/04/01 01:26:34;;;;;;;13.52;8.25;;;;;;;;;;5018280;28;20068;-60
2022/04/01 01:29:00;;;;;;;12.77;9.30;;;;;;;;;;5022914;28;20037;-60
2022/04/01 01:31:26;;;;;;;14.30;8.93;;;;;;;;;;5022112;28;20440;-61
2022/04/01 01:33:54;;;;;;;11.98;8.93;;;;;;;;;;5013888;28;20114;-60
2022/04/01 01:36:21;;;;;;;12.27;8.52;;;;;;;;;;5028023;28;20105;-61
2022/04/01 01:38:47;;;;;;;13.00;9.30;;;;;;;;;;5023378;28;20022;-60
2022/04/01 01:41:14;;;;;;;12.98;8.90;;;;;;;;;;5021627;28;20096;-60
2022/04/01 01:43:41;;;;;;;10.18;8.15;;;;;;;;;;5024348;28;20056;-60
2022/04/01 01:46:08;;;;;;;14.57;8.88;;;;;;;;;;5012132;28;20386;-60
2022/04/01 01:48:33;;;;;;;13.30;8.45;;;;;;;;;;5021055;28;20036;-60
2022/04/01 01:56:28;;;;;;;10.93;8.10;;;;;;;;;;5019023;28;20029;-60
2022/04/01 01:58:54;;;;;;;12.40;8.43;;;;;;;;;;5027718;28;20032;-60
2022/04/01 02:01:21;;;;;;;13.20;8.55;;;;;;;;;;5027000;28;20030;-61
2022/04/01 02:03:47;;;;;;;14.07;8.65;;;;;;;;;;5018132;28;20543;-60
2022/04/01 02:06:13;;;;;;;13.93;9.40;;;;;;;;;;5015231;28;20038;-60
2022/04/01 02:08:40;;;;;;;14.25;8.70;;;;;;;;;;5028015;28;20033;-61
2022/04/01 02:11:07;;;;;;;12.90;8.38;;;;;;;;;;5032012;28;20033;-60
2022/04/01 02:13:34;;;;;;;12.05;7.88;;;;;;;;;;5024830;28;20099;-60
2022/04/01 02:16:00;;;;;;;10.48;7.88;;;;;;;;;;5013812;28;20041;-60
2022/04/01 02:18:27;;;;;;;10.68;7.88;;;;;;;;;;5021977;28;20032;-60
2022/04/01 02:20:53;;;;;;;15.02;7.88;;;;;;;;;;5017824;28;20057;-60
2022/04/01 02:23:19;;;;;;;10.27;7.82;;;;;;;;;;5017194;28;20504;-60
2022/04/01 02:25:45;;;;;;;10.98;7.05;;;;;;;;;;5020370;28;20060;-60
2022/04/01 02:28:12;;;;;;;11.23;7.22;;;;;;;;;;5022167;28;20025;-61
2022/04/01 02:30:38;;;;;;;9.35;7.40;;;;;;;;;;5022694;28;20028;-60
2022/04/01 02:33:06;;;;;;;8.20;7.07;;;;;;;;;;5021988;28;20529;-60
2022/04/01 02:35:32;;;;;;;10.93;7.53;;;;;;;;;;5020486;28;20030;-60
2022/04/01 02:37:59;;;;;;;11.65;7.70;;;;;;;;;;5018538;28;20029;-60
2022/04/01 02:40:24;;;;;;;13.27;7.68;;;;;;;;;;5023006;28;20385;-60
2022/04/01 02:42:53;;;;;;;8.10;7.25;;;;;;;;;;5024596;28;20053;-60
2022/04/01 02:45:24;;;;;;;13.23;8.00;;;;;;;;;;5017049;28;20470;-60
2022/04/01 02:47:50;;;;;;;10.98;7.75;;;;;;;;;;5018428;28;20033;-60
2022/04/01 02:50:16;;;;;;;13.68;8.48;;;;;;;;;;5012253;28;20045;-60
2022/04/01 02:52:42;;;;;;;10.55;7.70;;;;;;;;;;5020422;28;20029;-61
2022/04/01 02:55:08;;;;;;;9.80;7.68;;;;;;;;;;5020110;28;20076;-60
2022/04/01 02:57:34;;;;;;;11.77;7.82;;;;;;;;;;5020662;28;20032;-60
2022/04/01 03:00:00;;;;;;;14.63;8.63;;;;;;;;;;5017230;28;20030;-60
2022/04/01 03:02:27;;;;;;;10.40;8.02;;;;;;;;;;5023568;28;20378;-60
2022/04/01 03:04:52;;;;;;;10.20;7.18;;;;;;;;;;5021408;28;20025;-61
2022/04/01 03:07:18;;;;;;;11.25;7.72;;;;;;;;;;5022672;28;20026;-60
2022/04/01 03:09:44;;;;;;;12.85;7.88;;;;;;;;;;5020080;28;20402;-60
2022/04/01 03:12:11;;;;;;;11.07;7.45;;;;;;;;;;5024609;28;20133;-60
2022/04/01 03:14:37;;;;;;;12.00;7.72;;;;;;;;;;5017479;28;20026;-60
2022/04/01 03:17:03;;;;;;;10.45;7.57;;;;;;;;;;5024930;28;20445;-59
2022/04/01 03:19:29;;;;;;;12.00;7.07;;;;;;;;;;5014691;28;20133;-60
2022/04/01 03:21:55;;;;;;;11.20;7.63;;;;;;;;;;5019132;28;20120;-61
2022/04/01 03:24:21;;;;;;;12.57;7.82;;;;;;;;;;5022303;28;20037;-60
2022/04/01 03:26:47;;;;;;;12.23;7.38;;;;;;;;;;5018459;28;20037;-60
2022/04/01 03:29:12;;;;;;;11.48;7.60;;;;;;;;;;5024449;28;20041;-60
2022/04/01 03:31:40;;;;;;;9.55;7.45;;;;;;;;;;5015445;28;20030;-60
2022/04/01 03:34:06;;;;;;;6.78;5.90;;;;;;;;;;5014338;28;20478;-60
2022/04/01 03:36:33;;;;;;;8.68;5.93;;;;;;;;;;5014113;28;20037;-59
2022/04/01 03:39:00;;;;;;;6.63;4.93;;;;;;;;;;5014360;28;20030;-59
2022/04/01 03:41:26;;;;;;;10.25;5.30;;;;;;;;;;5024779;28;20042;-60
2022/04/01 03:43:52;;;;;;;7.55;4.90;;;;;;;;;;5032949;28;20041;-59
2022/04/01 03:46:20;;;;;;;7.38;4.30;;;;;;;;;;5026015;28;20036;-60
2022/04/01 03:48:55;;;;;;;4.47;3.83;;;;;;;;;;5015291;28;20037;-60
2022/04/01 03:51:25;;;;;;;5.32;3.53;;;;;;;;;;5013251;28;20025;-60
2022/04/01 03:53:58;;;;;;;5.18;3.60;;;;;;;;;;5015105;28;20030;-60
2022/04/01 03:56:34;;;;;;;6.65;2.90;;;;;;;;;;5033081;28;20362;-62
2022/04/01 03:59:02;;;;;;;6.85;2.70;;;;;;;;;;5020103;28;20033;-61
2022/04/01 04:01:28;;;;;;;5.13;2.13;;;;;;;;;;5023627;28;20038;-60
2022/04/01 04:03:57;;;;;;;3.05;1.92;;;;;;;;;;5019234;28;20440;-61
2022/04/01 04:06:24;;;;;;;4.07;1.63;;;;;;;;;;5016033;28;20041;-60
2022/04/01 04:08:55;;;;;;;1.48;1.40;;;;;;;;;;5024042;28;20079;-61
2022/04/01 04:11:28;;;;;;;1.48;1.38;;;;;;;;;;5019426;28;20029;-61
2022/04/01 04:14:10;;;;;;;1.40;1.30;;;;;;;;;;5021463;28;20037;-60
2022/04/01 04:16:57;;;;;;;0.98;0.88;;;;;;;;;;5025701;28;20478;-58
2022/04/01 04:19:57;;;;;;;1.90;0.90;;;;;;;;;;5024791;28;20034;-59
2022/04/01 04:22:51;;;;;;;1.92;0.70;;;;;;;;;;5020806;28;20402;-59
2022/04/01 04:25:38;;;;;;;1.92;0.50;;;;;;;;;;5025063;28;20065;-59
2022/04/01 04:28:25;;;;;;;2.30;0.90;;;;;;;;;;5016957;28;20038;-59
2022/04/01 04:31:12;;;;;;;1.75;0.75;;;;;;;;;;5015065;28;20029;-59
2022/04/01 04:34:00;;;;;;;3.90;0.90;;;;;;;;;;5022635;28;20065;-60
2022/04/01 04:36:36;;;;;;;1.25;1.00;;;;;;;;;;5015270;28;20534;-60
2022/04/01 04:39:16;;;;;;;0.80;0.80;;;;;;;;;;5015294;28;20739;-59
2022/04/01 04:41:43;;;;;;;2.42;1.15;;;;;;;;;;5017197;28;20045;-59
2022/04/01 04:44:11;;;;;;;0.85;0.73;;;;;;;;;;5020649;28;20054;-60
2022/04/01 04:46:42;;;;;;;2.42;1.20;;;;;;;;;;5020446;28;20036;-58
2022/04/01 04:49:09;;;;;;;7.63;1.10;;;;;;;;;;5024187;28;20104;-59
2022/04/01 04:51:35;;;;;;;2.15;0.80;;;;;;;;;;5023224;28;20028;-61
2022/04/01 04:54:01;;;;;;;1.20;1.10;;;;;;;;;;5014498;28;20029;-59
2022/04/01 04:56:27;;;;;;;1.48;1.33;;;;;;;;;;5022704;28;20014;-61
2022/04/01 04:58:56;;;;;;;1.13;1.13;;;;;;;;;;5021598;28;20025;-60
2022/04/01 05:01:42;;;;;;;1.10;1.10;;;;;;;;;;5023212;28;20053;-58
2022/04/01 05:04:13;;;;;;;1.25;1.00;;;;;;;;;;5028231;28;20028;-61
2022/04/01 05:06:55;;;;;;;1.13;1.13;;;;;;;;;;5029337;28;20029;-58
2022/04/01 05:09:38;;;;;;;1.08;1.08;;;;;;;;;;5022113;28;20029;-60
2022/04/01 05:12:12;;;;;;;1.00;1.00;;;;;;;;;;5032358;28;20045;-57
2022/04/01 05:15:08;;;;;;;4.70;1.13;;;;;;;;;;5015897;28;20034;-59
2022/04/01 05:17:59;;;;;;;1.00;1.00;;;;;;;;;;5015690;28;20100;-60
2022/04/01 05:20:28;;;;;;;0.80;0.80;;;;;;;;;;5027422;28;20064;-60
2022/04/01 05:22:54;;;;;;;1.98;0.95;;;;;;;;;;5020723;28;20356;-61
2022/04/01 05:25:22;;;;;;;0.82;0.80;;;;;;;;;;5027225;28;20170;-62
2022/04/01 05:27:50;;;;;;;0.80;0.80;;;;;;;;;;5031159;28;20437;-60
2022/04/01 05:30:17;;;;;;;3.08;1.08;;;;;;;;;;5023144;28;20034;-60
2022/04/01 05:32:52;;;;;;;2.72;1.00;;;;;;;;;;5019399;28;20030;-60
2022/04/01 05:35:19;;;;;;;2.67;0.80;;;;;;;;;;5030286;28;20037;-59
2022/04/01 05:37:47;;;;;;;3.17;0.85;;;;;;;;;;5024300;28;20458;-60
2022/04/01 05:40:14;;;;;;;0.77;0.77;;;;;;;;;;5026480;28;20029;-60
2022/04/01 05:42:40;;;;;;;0.75;0.75;;;;;;;;;;5020316;28;20581;-59
2022/04/01 05:45:07;;;;;;;0.50;0.50;;;;;;;;;;5020330;28;20037;-60
2022/04/01 05:47:35;;;;;;;1.02;0.80;;;;;;;;;;5019277;28;20033;-60
2022/04/01 05:50:01;;;;;;;0.75;0.60;;;;;;;;;;5026202;28;20505;-60
2022/04/01 05:52:28;;;;;;;0.77;0.50;;;;;;;;;;5030093;28;20041;-59
2022/04/01 05:54:56;;;;;;;3.05;0.82;;;;;;;;;;5027170;28;20021;-59
2022/04/01 05:57:22;;;;;;;0.70;0.70;;;;;;;;;;5019012;28;20036;-59
2022/04/01 05:59:47;;;;;;;3.13;0.90;;;;;;;;;;5017147;28;20022;-58
2022/04/01 06:02:34;;;;;;;1.30;0.80;;;;;;;;;;5016950;28;20203;-59
2022/04/01 06:05:17;;;;;;;1.00;1.00;;;;;;;;;;5024851;28;20111;-60
2022/04/01 06:07:57;;;;;;;0.88;0.88;;;;;;;;;;5019443;28;20036;-59
2022/04/01 06:10:36;;;;;;;1.10;1.10;;;;;;;;;;5026429;28;20025;-60
2022/04/01 06:13:32;;;;;;;1.20;1.10;;;;;;;;;;5022327;28;20022;-59
2022/04/01 06:16:18;;;;;;;1.05;1.05;;;;;;;;;;5021514;28;20038;-60
2022/04/01 06:18:46;;;;;;;1.60;1.10;;;;;;;;;;5020029;28;20574;-59
2022/04/01 06:21:21;;;;;;;1.80;0.80;;;;;;;;;;5014308;28;20034;-60
2022/04/01 06:24:02;;;;;;;1.40;1.30;;;;;;;;;;5018685;28;20129;-59
2022/04/01 06:26:30;;;;;;;0.60;0.60;;;;;;;;;;5023550;28;20030;-58
2022/04/01 06:29:02;;;;;;;0.55;0.55;;;;;;;;;;5017141;28;20457;-60
2022/04/01 06:31:29;;;;;;;0.68;0.68;;;;;;;;;;5018490;28;20026;-60
2022/04/01 06:34:29;;;;;;;0.80;0.80;;;;;;;;;;5021767;28;20029;-60
2022/04/01 06:37:02;;;;;;;1.83;1.73;;;;;;;;;;5023911;28;20126;-61
2022/04/01 06:39:47;;;;;;;1.67;1.58;;;;;;;;;;5015621;28;20128;-60
2022/04/01 06:42:20;;;;;;;1.02;0.90;;;;;;;;;;5012748;28;20050;-61
2022/04/01 06:44:47;;;;;;;1.13;1.02;;;;;;;;;;5016197;28;20128;-60
2022/04/01 06:47:12;;;;;;;1.00;0.90;;;;;;;;;;5020121;28;20573;-61
2022/04/01 06:49:38;;;;;;;0.90;0.90;;;;;;;;;;5024001;28;20113;-61
2022/04/01 06:52:04;;;;;;;0.88;0.88;;;;;;;;;;5025224;28;20029;-61
2022/04/01 06:54:29;;;;;;;2.95;0.80;;;;;;;;;;5019678;28;20107;-58
2022/04/01 06:56:55;;;;;;;1.00;1.00;;;;;;;;;;5013854;28;20117;-60
2022/04/01 06:59:20;;;;;;;0.70;0.70;;;;;;;;;;5017836;28;20038;-60
2022/04/01 07:01:46;;;;;;;1.58;1.17;;;;;;;;;;5022224;28;20456;-61
2022/04/01 07:04:12;;;;;;;1.17;1.00;;;;;;;;;;5023622;28;20114;-60
2022/04/01 07:06:38;;;;;;;0.90;0.90;;;;;;;;;;5023394;28;20036;-61
2022/04/01 07:09:04;;;;;;;0.90;0.90;;;;;;;;;;5023800;28;20585;-61
2022/04/01 07:11:29;;;;;;;0.88;0.88;;;;;;;;;;5023435;28;20025;-61
2022/04/01 07:13:55;;;;;;;1.25;1.15;;;;;;;;;;5026634;28;20075;-60
2022/04/01 07:16:20;;;;;;;0.90;0.90;;;;;;;;;;5018571;28;20053;-61
2022/04/01 07:18:46;;;;;;;1.40;1.30;;;;;;;;;;5019126;28;21418;-59
2022/04/01 07:21:12;;;;;;;3.20;1.30;;;;;;;;;;5017022;28;20021;-60
2022/04/01 07:23:38;;;;;;;1.15;1.13;;;;;;;;;;5016055;28;20034;-60
2022/04/01 07:26:04;;;;;;;8.90;1.40;;;;;;;;;;5019817;28;20099;-59
2022/04/01 07:28:30;;;;;;;1.70;1.60;;;;;;;;;;5008313;28;20033;-60
2022/04/01 07:30:55;;;;;;;1.45;1.27;;;;;;;;;;5018244;28;20036;-61
2022/04/01 07:33:21;;;;;;;1.25;1.17;;;;;;;;;;5017114;28;20029;-60
2022/04/01 07:35:47;;;;;;;2.15;1.10;;;;;;;;;;5024109;28;20437;-60
2022/04/01 07:38:14;;;;;;;3.38;1.30;;;;;;;;;;5022929;28;20037;-61
2022/04/01 07:40:39;;;;;;;0.82;0.82;;;;;;;;;;5013214;28;20092;-61
2022/04/01 07:43:05;;;;;;;1.00;1.00;;;;;;;;;;5020349;28;20033;-60
2022/04/01 07:45:34;;;;;;;0.90;0.90;;;;;;;;;;5016250;28;20422;-59
2022/04/01 07:48:00;;;;;;;1.05;0.95;;;;;;;;;;5013899;28;20033;-61
2022/04/01 07:50:27;;;;;;;0.75;0.75;;;;;;;;;;5016757;28;20187;-61
2022/04/01 07:52:53;;;;;;;3.75;0.80;;;;;;;;;;5016670;28;20040;-61
2022/04/01 07:55:20;;;;;;;2.17;0.93;;;;;;;;;;5016452;28;20038;-60
2022/04/01 07:57:48;;;;;;;6.18;1.17;;;;;;;;;;5012652;28;20084;-60
2022/04/01 08:00:16;;;;;;;0.88;0.88;;;;;;;;;;5012455;28;20044;-61
2022/04/01 08:02:41;;;;;;;0.80;0.80;;;;;;;;;;5015663;28;20402;-60
2022/04/01 08:05:08;;;;;;;0.70;0.70;;;;;;;;;;5017897;28;20034;-60
2022/04/01 08:07:34;;;;;;;10.48;0.82;;;;;;;;;;5019414;28;20068;-60
2022/04/01 08:10:00;;;;;;;8.77;1.08;;;;;;;;;;5016744;28;20037;-61
2022/04/01 08:12:26;;;;;;;23.77;1.17;;;;;;;;;;5011415;28;20498;-61
2022/04/01 08:14:51;;;;;;;2.15;0.70;;;;;;;;;;5017194;28;20482;-61
2022/04/01 08:17:17;;;;;;;2.25;0.75;;;;;;;;;;5010146;28;20425;-61
2022/04/01 08:19:43;;;;;;;6.45;1.17;;;;;;;;;;5018249;28;20080;-61
2022/04/01 08:22:09;;;;;;;5.25;1.20;;;;;;;;;;5012339;28;20025;-60
2022/04/01 08:24:37;;;;;;;3.60;1.10;;;;;;;;;;5017507;28;20045;-61
2022/04/01 08:27:03;;;;;;;1.83;1.30;;;;;;;;;;5015394;28;20057;-58
2022/04/01 08:29:30;;;;;;;3.78;1.20;;;;;;;;;;5014302;28;20080;-60
2022/04/01 08:31:57;;;;;;;1.88;1.50;;;;;;;;;;5016377;28;20359;-61
2022/04/01 08:34:23;;;;;;;3.80;1.08;;;;;;;;;;5013893;28;20666;-58
2022/04/01 08:36:49;;;;;;;1.08;0.98;;;;;;;;;;5012505;28;20026;-59
2022/04/01 08:39:15;;;;;;;1.10;1.10;;;;;;;;;;5018290;28;20048;-60
2022/04/01 08:41:40;;;;;;;1.38;1.27;;;;;;;;;;5015814;28;20034;-60
2022/04/01 08:44:06;;;;;;;4.18;1.25;;;;;;;;;;5020546;28;20482;-60
2022/04/01 08:46:33;;;;;;;3.30;1.10;;;;;;;;;;5019926;28;20030;-60
2022/04/01 08:48:59;;;;;;;2.80;1.00;;;;;;;;;;5024633;28;20025;-60
2022/04/01 08:51:28;;;;;;;2.97;1.23;;;;;;;;;;5021849;28;20057;-60
2022/04/01 08:53:54;;;;;;;9.25;1.40;;;;;;;;;;5027694;28;20034;-59
2022/04/01 08:56:20;;;;;;;1.15;1.15;;;;;;;;;;5026672;28;20490;-60
2022/04/01 08:58:46;;;;;;;0.95;0.88;;;;;;;;;;5020251;28;20034;-61
2022/04/01 09:01:13;;;;;;;4.45;1.23;;;;;;;;;;5023895;28;20482;-61
2022/04/01 09:03:40;;;;;;;6.13;1.67;;;;;;;;;;5021553;28;20088;-61
2022/04/01 09:06:07;;;;;;;1.67;1.58;;;;;;;;;;5013820;28;20164;-60
2022/04/01 09:08:35;;;;;;;6.07;1.45;;;;;;;;;;5019926;28;20480;-60
2022/04/01 09:11:04;;;;;;;12.13;1.15;;;;;;;;;;5017024;28;20544;-60
2022/04/01 09:13:42;;;;;;;1.20;1.20;;;;;;;;;;5019981;28;20044;-61
2022/04/01 09:16:09;;;;;;;1.42;1.25;;;;;;;;;;5022264;28;20054;-61
2022/04/01 09:18:44;;;;;;;1.52;1.17;;;;;;;;;;5014074;28;20504;-60
2022/04/01 09:21:14;;;;;;;2.67;1.50;;;;;;;;;;5016948;28;20032;-60
2022/04/01 09:23:48;;;;;;;1.90;1.58;;;;;;;;;;5018451;28;20030;-60
2022/04/01 09:26:19;;;;;;;2.90;1.30;;;;;;;;;;5028573;28;20030;-60
2022/04/01 09:28:44;;;;;;;1.42;1.20;;;;;;;;;;5023015;28;20037;-63
2022/04/01 09:31:13;;;;;;;1.75;1.50;;;;;;;;;;5022289;28;20017;-60
2022/04/01 09:33:42;;;;;;;1.20;1.10;;;;;;;;;;5019242;28;20030;-61
2022/04/01 09:36:10;;;;;;;1.75;1.65;;;;;;;;;;5017303;28;20149;-61
2022/04/01 09:38:36;;;;;;;10.98;1.40;;;;;;;;;;5020688;28;20038;-60
2022/04/01 09:41:04;;;;;;;4.53;1.50;;;;;;;;;;5023389;28;20048;-61
2022/04/01 09:43:32;;;;;;;1.40;1.30;;;;;;;;;;5015016;28;20504;-61
2022/04/01 09:46:04;;;;;;;1.80;1.33;;;;;;;;;;5024278;28;20119;-60
2022/04/01 09:48:39;;;;;;;3.03;1.52;;;;;;;;;;5018433;28;20029;-60
2022/04/01 09:51:04;;;;;;;1.70;1.60;;;;;;;;;;5019191;28;20041;-59
2022/04/01 09:53:33;;;;;;;4.28;1.50;;;;;;;;;;5015788;28;20495;-60
2022/04/01 09:55:59;;;;;;;3.35;1.90;;;;;;;;;;5011009;28;20390;-61
2022/04/01 09:58:25;;;;;;;4.47;1.35;;;;;;;;;;5015685;28;20033;-61
2022/04/01 10:00:56;;;;;;;10.85;1.70;;;;;;;;;;5022556;28;20044;-60
2022/04/01 10:03:22;;;;;;;4.30;1.70;;;;;;;;;;5013557;28;20041;-60
2022/04/01 10:05:49;;;;;;;1.75;1.65;;;;;;;;;;5018675;28;20033;-60
2022/04/01 10:08:15;;;;;;;1.35;1.25;;;;;;;;;;5017742;28;20021;-60
2022/04/01 10:10:41;;;;;;;1.80;1.30;;;;;;;;;;5021293;28;20525;-61
2022/04/01 10:13:25;;;;;;;1.60;1.30;;;;;;;;;;5020377;28;20036;-56
2022/04/01 10:15:54;;;;;;;1.80;1.70;;;;;;;;;;5014919;28;20037;-59
2022/04/01 10:18:21;;;;;;;2.60;2.15;;;;;;;;;;5018359;28;20025;-61
2022/04/01 10:20:47;;;;;;;8.32;1.65;;;;;;;;;;5019038;28;20061;-60
2022/04/01 10:23:14;;;;;;;2.50;1.58;;;;;;;;;;5022542;28;20078;-60
2022/04/01 10:25:58;;;;;;;11.00;1.30;;;;;;;;;;5017393;28;20068;-60
2022/04/01 10:28:25;;;;;;;5.78;3.20;;;;;;;;;;5020591;28;20025;-59
2022/04/01 10:30:59;;;;;;;1.50;1.40;;;;;;;;;;5017619;28;20049;-60
2022/04/01 10:33:28;;;;;;;5.88;1.50;;;;;;;;;;5013775;28;20022;-60
2022/04/01 10:35:55;;;;;;;1.70;1.60;;;;;;;;;;5014708;28;20124;-60
2022/04/01 10:38:26;;;;;;;4.78;1.63;;;;;;;;;;5032731;28;20078;-61
2022/04/01 10:40:53;;;;;;;2.22;1.50;;;;;;;;;;5020047;28;20042;-61
2022/04/01 10:43:26;;;;;;;7.97;1.65;;;;;;;;;;5011593;28;20386;-61
2022/04/01 10:46:10;;;;;;;3.70;1.75;;;;;;;;;;5013743;28;20641;-61
2022/04/01 10:51:38;;;;;;;5.15;2.00;;;;;;;;;;5013585;28;20040;-60
2022/04/01 10:54:12;;;;;;;2.95;1.75;;;;;;;;;;5021689;28;20036;-60
2022/04/01 10:56:54;;;;;;;3.17;1.80;;;;;;;;;;5014104;28;20448;-60
2022/04/01 10:59:24;;;;;;;;;;;;;;;;;;5014106;28;20117;-59
2022/04/01 11:01:52;;;;;;;5.57;1.90;;;;;;;;;;5017641;28;19917;-61
2022/04/01 11:04:18;;;;;;;3.92;1.58;;;;;;;;;;5014360;28;20536;-60
2022/04/01 11:07:04;;;;;;;2.78;1.40;;;;;;;;;;5017399;28;20037;-61
2022/04/01 11:09:48;;;;;;;3.80;1.80;;;;;;;;;;5012877;28;20040;-59
2022/04/01 11:12:14;;;;;;;6.20;1.80;;;;;;;;;;5012397;28;20029;-61
2022/04/01 11:14:59;;;;;;;1.40;1.25;;;;;;;;;;5013162;28;20049;-61
2022/04/01 11:17:34;;;;;;;1.50;1.40;;;;;;;;;;5014768;28;20192;-61
2022/04/01 11:20:32;;;;;;;4.63;1.70;;;;;;;;;;5019125;28;20133;-61
2022/04/01 11:23:01;;;;;;;2.97;1.98;;;;;;;;;;5015982;28;20033;-61
2022/04/01 11:25:32;;;;;;;1.75;1.38;;;;;;;;;;5020768;28;20037;-61
2022/04/01 11:28:03;;;;;;;12.00;2.25;;;;;;;;;;5013237;28;20117;-61
2022/04/01 11:30:31;;;;;;;2.53;1.95;;;;;;;;;;5010509;28;21810;-61
2022/04/01 11:32:59;;;;;;;2.08;1.42;;;;;;;;;;5013189;28;20033;-61
2022/04/01 11:35:28;;;;;;;2.30;1.80;;;;;;;;;;5015684;28;20181;-62
2022/04/01 11:37:54;;;;;;;3.05;1.70;;;;;;;;;;5007542;28;20021;-61
2022/04/01 11:40:25;;;;;;;4.65;1.40;;;;;;;;;;5015242;28;20481;-62
2022/04/01 11:42:56;;;;;;;1.77;1.50;;;;;;;;;;5008912;28;20046;-62
2022/04/01 11:45:22;;;;;;;1.45;1.35;;;;;;;;;;5012626;28;20091;-61
2022/04/01 11:47:48;;;;;;;2.38;1.73;;;;;;;;;;5014161;28;20033;-62
2022/04/01 11:50:15;;;;;;;2.15;1.50;;;;;;;;;;5016108;28;20037;-62
2022/04/01 11:52:43;;;;;;;1.50;1.35;;;;;;;;;;5017349;28;20136;-62
2022/04/01 11:55:10;;;;;;;4.78;1.40;;;;;;;;;;5015035;28;20091;-61
2022/04/01 11:57:37;;;;;;;1.92;1.67;;;;;;;;;;5017484;28;20359;-61
2022/04/01 12:00:14;;;;;;;5.13;2.22;;;;;;;;;;5010026;28;20037;-61
2022/04/01 12:02:41;;;;;;;5.63;1.40;;;;;;;;;;5015256;28;20096;-62
2022/04/01 12:05:08;;;;;;;9.55;1.80;;;;;;;;;;5015795;28;20059;-60
2022/04/01 12:10:27;;;;;;;1.52;1.42;;;;;;;;;;5013504;28;20438;-62
2022/04/01 12:12:55;;;;;;;1.45;1.30;;;;;;;;;;5016634;28;20072;-62
2022/04/01 12:15:42;;;;;;;10.68;1.58;;;;;;;;;;5014564;28;20482;-62
2022/04/01 12:18:10;;;;;;;3.33;1.73;;;;;;;;;;5022717;28;20087;-62
2022/04/01 12:20:41;;;;;;;4.38;1.63;;;;;;;;;;5020696;28;20029;-61
2022/04/01 12:23:07;;;;;;;1.25;0.90;;;;;;;;;;5021484;28;20122;-60
2022/04/01 12:25:36;;;;;;;8.93;1.33;;;;;;;;;;5018025;28;20036;-61
2022/04/01 12:28:10;;;;;;;2.50;1.35;;;;;;;;;;5018483;28;20033;-61
2022/04/01 12:30:42;;;;;;;2.47;1.45;;;;;;;;;;5017412;28;20034;-62
2022/04/01 12:33:10;;;;;;;3.53;1.33;;;;;;;;;;5015709;28;20083;-61
2022/04/01 12:36:03;;;;;;;10.82;1.58;;;;;;;;;;5013755;28;20060;-62
2022/04/01 12:38:31;;;;;;;5.13;1.33;;;;;;;;;;5019653;28;20084;-61
2022/04/01 12:41:00;;;;;;;1.90;1.30;;;;;;;;;;5020423;28;20041;-61
2022/04/01 12:43:36;;;;;;;2.55;0.80;;;;;;;;;;5021931;28;20030;-62
2022/04/01 12:46:08;;;;;;;2.05;1.20;;;;;;;;;;5011810;28;20029;-61
2022/04/01 12:48:45;;;;;;;2.33;1.42;;;;;;;;;;5018228;28;20034;-60
2022/04/01 12:51:17;;;;;;;6.90;1.40;;;;;;;;;;5017901;28;20075;-61
2022/04/01 12:54:12;;;;;;;3.08;1.30;;;;;;;;;;5025022;28;20036;-61
2022/04/01 12:56:40;;;;;;;3.33;1.30;;;;;;;;;;5015015;28;20119;-61
2022/04/01 12:59:14;;;;;;;1.70;1.50;;;;;;;;;;5016252;28;20617;-61
2022/04/01 13:01:42;;;;;;;3.13;1.52;;;;;;;;;;5019880;28;20506;-61
2022/04/01 13:04:09;;;;;;;4.47;0.98;;;;;;;;;;5017428;28;20029;-62
2022/04/01 13:06:36;;;;;;;1.70;1.20;;;;;;;;;;5016702;28;20281;-61
2022/04/01 13:09:08;;;;;;;6.72;1.30;;;;;;;;;;5017647;28;20033;-62
2022/04/01 13:11:39;;;;;;;1.20;1.08;;;;;;;;;;5018618;28;20445;-61
2022/04/01 13:14:17;;;;;;;1.98;1.30;;;;;;;;;;5015050;28;20112;-61
2022/04/01 13:16:43;;;;;;;4.55;1.35;;;;;;;;;;5019442;28;20053;-60
2022/04/01 13:19:20;;;;;;;2.05;1.15;;;;;;;;;;5016464;28;20017;-58
2022/04/01 13:21:46;;;;;;;5.50;1.85;;;;;;;;;;5016892;28;20029;-59
2022/04/01 13:24:12;;;;;;;2.50;1.52;;;;;;;;;;5015308;28;20040;-61
2022/04/01 13:26:38;;;;;;;1.73;1.60;;;;;;;;;;5023429;28;20030;-60
2022/04/01 13:29:04;;;;;;;5.93;2.15;;;;;;;;;;5018017;28;20029;-59
2022/04/01 13:31:29;;;;;;;1.83;1.17;;;;;;;;;;5018695;28;20068;-59
2022/04/01 13:33:56;;;;;;;1.88;1.35;;;;;;;;;;5017604;28;20104;-60
2022/04/01 13:36:23;;;;;;;3.35;1.30;;;;;;;;;;5012377;28;20072;-61
2022/04/01 13:38:50;;;;;;;2.67;1.20;;;;;;;;;;5019807;28;20478;-61
2022/04/01 13:41:16;;;;;;;2.28;1.80;;;;;;;;;;5020820;28;20080;-60
2022/04/01 13:43:41;;;;;;;1.25;1.15;;;;;;;;;;5015612;28;20092;-61
2022/04/01 13:46:08;;;;;;;6.35;1.52;;;;;;;;;;5018058;28;20558;-60
2022/04/01 13:48:34;;;;;;;2.42;1.33;;;;;;;;;;5018900;28;20032;-61
2022/04/01 13:50:59;;;;;;;2.17;1.20;;;;;;;;;;5013685;28;20033;-61
2022/04/01 13:53:25;;;;;;;2.10;1.33;;;;;;;;;;5015351;28;20033;-61
2022/04/01 13:55:51;;;;;;;3.15;0.90;;;;;;;;;;5016444;28;20470;-61
2022/04/01 13:58:16;;;;;;;3.15;1.25;;;;;;;;;;5014025;28;20045;-60
2022/04/01 14:00:42;;;;;;;3.80;1.08;;;;;;;;;;5013083;28;20034;-61
2022/04/01 14:03:09;;;;;;;1.73;1.20;;;;;;;;;;5014430;28;20037;-61
2022/04/01 14:05:35;;;;;;;8.95;1.30;;;;;;;;;;5022298;28;20025;-60
2022/04/01 14:08:00;;;;;;;1.92;1.33;;;;;;;;;;5016687;28;20402;-60
2022/04/01 14:10:26;;;;;;;6.90;2.00;;;;;;;;;;5020869;28;20593;-60
2022/04/01 14:12:52;;;;;;;4.20;0.93;;;;;;;;;;5020217;28;20049;-61
2022/04/01 14:15:18;;;;;;;0.80;0.80;;;;;;;;;;5013560;28;20120;-60
2022/04/01 14:17:44;;;;;;;3.05;1.30;;;;;;;;;;5022281;28;20028;-59
2022/04/01 14:20:11;;;;;;;0.90;0.90;;;;;;;;;;5007736;28;20033;-60
2022/04/01 14:22:37;;;;;;;1.25;1.02;;;;;;;;;;5017059;28;20026;-60
2022/04/01 14:25:03;;;;;;;2.40;1.20;;;;;;;;;;5014485;28;20052;-61
2022/04/01 14:27:29;;;;;;;2.75;1.20;;;;;;;;;;5016327;28;20044;-61
2022/04/01 14:32:40;;;;;;;2.30;1.00;;;;;;;;;;5011947;28;20030;-61
2022/04/01 14:35:07;;;;;;;0.95;0.82;;;;;;;;;;5010042;28;20049;-60
2022/04/01 14:37:33;;;;;;;1.67;1.15;;;;;;;;;;5014710;28;20033;-61
2022/04/01 14:39:59;;;;;;;1.90;1.20;;;;;;;;;;5013572;28;20398;-61
2022/04/01 14:42:25;;;;;;;1.50;1.20;;;;;;;;;;5015310;28;20045;-60
2022/04/01 14:44:51;;;;;;;0.90;0.80;;;;;;;;;;5016928;28;20030;-62
2022/04/01 14:47:17;;;;;;;1.05;1.00;;;;;;;;;;5013968;28;20026;-60
2022/04/01 14:49:42;;;;;;;1.40;0.85;;;;;;;;;;5011576;28;20025;-60
2022/04/01 14:52:08;;;;;;;1.77;0.90;;;;;;;;;;5014624;28;20506;-60
2022/04/01 14:54:35;;;;;;;3.55;1.27;;;;;;;;;;5015646;28;20501;-61
2022/04/01 14:57:01;;;;;;;1.70;0.90;;;;;;;;;;5010399;28;20116;-61
2022/04/01 14:59:27;;;;;;;3.22;1.52;;;;;;;;;;5017935;28;20093;-61
2022/04/01 15:01:53;;;;;;;2.00;1.10;;;;;;;;;;5021078;28;20105;-60
2022/04/01 15:04:19;;;;;;;2.15;1.13;;;;;;;;;;5022763;28;20033;-61
2022/04/01 15:06:48;;;;;;;1.33;1.13;;;;;;;;;;5017807;28;20033;-60